Pearsonville, California
Current Conditions -  °F | °C
As of 11:56 AM on Friday 21 Nov 2014 (Local Time) from KNID Reporting Station
Clear Clear  
Wind Chill: 65°   Ceiling: Unl
Heat Index: 65°   Visibility: 10mi
Dew Point: 32°   Wind: 6mph
Humidity: 29%   Direction: 130°SE
Pressure: 29.98"   Gusts: NA
Location:  35.6841°N, 117.934°W
Report Text: KNID 211956Z AUTO 13005KT 10SM CLR 18/00 A2998 RMK AO2 SLP147 T01830000 $
Loading
Personal Weather Stations






























Interactive Weather Map New forecast layout! Learn more

10-Day Weather Forecast

Advertisements
Track Severe Weather on mobile